sensor_id;sensor_type;location;lat;lon;timestamp;temperature;humidity
77519;DHT22;66629;47.346;19.038;2023-02-28T00:00:18;0.57;62.06
77519;DHT22;66629;47.346;19.038;2023-02-28T00:02:45;0.57;61.73
77519;DHT22;66629;47.346;19.038;2023-02-28T00:05:13;0.54;62.40
77519;DHT22;66629;47.346;19.038;2023-02-28T00:07:39;0.58;61.52
77519;DHT22;66629;47.346;19.038;2023-02-28T00:10:06;0.56;61.64
77519;DHT22;66629;47.346;19.038;2023-02-28T00:12:33;0.57;61.47
77519;DHT22;66629;47.346;19.038;2023-02-28T00:14:59;0.62;61.16
77519;DHT22;66629;47.346;19.038;2023-02-28T00:17:24;0.67;60.99
77519;DHT22;66629;47.346;19.038;2023-02-28T00:19:51;0.68;61.16
77519;DHT22;66629;47.346;19.038;2023-02-28T00:22:20;0.67;61.60
77519;DHT22;66629;47.346;19.038;2023-02-28T00:24:46;0.65;61.51
77519;DHT22;66629;47.346;19.038;2023-02-28T00:27:13;0.71;61.46
77519;DHT22;66629;47.346;19.038;2023-02-28T00:29:39;0.67;61.73
77519;DHT22;66629;47.346;19.038;2023-02-28T00:32:05;0.68;61.43
77519;DHT22;66629;47.346;19.038;2023-02-28T00:34:30;0.67;61.53
77519;DHT22;66629;47.346;19.038;2023-02-28T00:36:56;0.64;61.81
77519;DHT22;66629;47.346;19.038;2023-02-28T00:39:21;0.64;61.73
77519;DHT22;66629;47.346;19.038;2023-02-28T00:41:47;0.64;61.47
77519;DHT22;66629;47.346;19.038;2023-02-28T00:44:12;0.71;61.01
77519;DHT22;66629;47.346;19.038;2023-02-28T00:46:38;0.65;60.87
77519;DHT22;66629;47.346;19.038;2023-02-28T00:49:03;0.64;61.14
77519;DHT22;66629;47.346;19.038;2023-02-28T00:51:29;0.74;60.77
77519;DHT22;66629;47.346;19.038;2023-02-28T00:53:54;0.65;61.33
77519;DHT22;66629;47.346;19.038;2023-02-28T00:56:20;0.64;61.28
77519;DHT22;66629;47.346;19.038;2023-02-28T00:58:46;0.61;61.15
77519;DHT22;66629;47.346;19.038;2023-02-28T01:01:11;0.69;61.10
77519;DHT22;66629;47.346;19.038;2023-02-28T01:03:37;0.72;61.05
77519;DHT22;66629;47.346;19.038;2023-02-28T01:06:03;0.69;61.27
77519;DHT22;66629;47.346;19.038;2023-02-28T01:08:29;0.71;61.15
77519;DHT22;66629;47.346;19.038;2023-02-28T01:10:55;0.72;61.08
77519;DHT22;66629;47.346;19.038;2023-02-28T01:13:21;0.67;61.47
77519;DHT22;66629;47.346;19.038;2023-02-28T01:15:50;0.76;61.12
77519;DHT22;66629;47.346;19.038;2023-02-28T01:18:17;0.76;60.86
77519;DHT22;66629;47.346;19.038;2023-02-28T01:20:42;0.76;61.13
77519;DHT22;66629;47.346;19.038;2023-02-28T01:23:08;0.79;61.14
77519;DHT22;66629;47.346;19.038;2023-02-28T01:25:35;0.81;61.28
77519;DHT22;66629;47.346;19.038;2023-02-28T01:28:00;0.84;61.34
77519;DHT22;66629;47.346;19.038;2023-02-28T01:30:26;0.82;61.50
77519;DHT22;66629;47.346;19.038;2023-02-28T01:32:51;0.85;61.00
77519;DHT22;66629;47.346;19.038;2023-02-28T01:35:19;0.84;61.34
77519;DHT22;66629;47.346;19.038;2023-02-28T01:37:45;0.78;61.14
77519;DHT22;66629;47.346;19.038;2023-02-28T01:40:11;0.81;61.26
77519;DHT22;66629;47.346;19.038;2023-02-28T01:42:37;0.78;61.58
77519;DHT22;66629;47.346;19.038;2023-02-28T01:45:22;0.79;61.68
77519;DHT22;66629;47.346;19.038;2023-02-28T01:47:50;0.75;61.74
77519;DHT22;66629;47.346;19.038;2023-02-28T01:50:20;0.79;61.52
77519;DHT22;66629;47.346;19.038;2023-02-28T01:52:47;0.76;61.57
77519;DHT22;66629;47.346;19.038;2023-02-28T01:55:15;0.82;61.11
77519;DHT22;66629;47.346;19.038;2023-02-28T01:57:48;0.86;61.01
77519;DHT22;66629;47.346;19.038;2023-02-28T02:00:19;0.75;61.74
77519;DHT22;66629;47.346;19.038;2023-02-28T02:02:47;0.72;61.85
77519;DHT22;66629;47.346;19.038;2023-02-28T02:05:22;0.74;62.07
77519;DHT22;66629;47.346;19.038;2023-02-28T02:07:55;0.75;62.08
77519;DHT22;66629;47.346;19.038;2023-02-28T02:10:32;0.75;61.97
77519;DHT22;66629;47.346;19.038;2023-02-28T02:32:13;0.79;62.39
77519;DHT22;66629;47.346;19.038;2023-02-28T02:37:30;0.79;62.56
77519;DHT22;66629;47.346;19.038;2023-02-28T02:42:51;0.85;62.22
77519;DHT22;66629;47.346;19.038;2023-02-28T02:45:37;0.85;62.29
77519;DHT22;66629;47.346;19.038;2023-02-28T02:48:08;0.85;62.39
77519;DHT22;66629;47.346;19.038;2023-02-28T02:50:41;0.84;62.60
77519;DHT22;66629;47.346;19.038;2023-02-28T02:53:09;0.78;62.66
77519;DHT22;66629;47.346;19.038;2023-02-28T02:55:39;0.72;63.12
77519;DHT22;66629;47.346;19.038;2023-02-28T02:58:10;0.76;62.96
77519;DHT22;66629;47.346;19.038;2023-02-28T03:00:42;0.74;63.27
77519;DHT22;66629;47.346;19.038;2023-02-28T03:03:09;0.72;62.91
77519;DHT22;66629;47.346;19.038;2023-02-28T03:05:42;0.84;62.82
77519;DHT22;66629;47.346;19.038;2023-02-28T03:08:08;0.79;62.96
77519;DHT22;66629;47.346;19.038;2023-02-28T03:10:37;0.75;63.29
77519;DHT22;66629;47.346;19.038;2023-02-28T03:19:28;0.74;62.94
77519;DHT22;66629;47.346;19.038;2023-02-28T03:27:09;0.69;63.29
77519;DHT22;66629;47.346;19.038;2023-02-28T03:32:38;0.69;63.56
77519;DHT22;66629;47.346;19.038;2023-02-28T03:35:16;0.78;63.13
77519;DHT22;66629;47.346;19.038;2023-02-28T03:37:49;0.79;63.70
77519;DHT22;66629;47.346;19.038;2023-02-28T03:40:21;0.76;64.41
77519;DHT22;66629;47.346;19.038;2023-02-28T03:42:50;0.78;64.09
77519;DHT22;66629;47.346;19.038;2023-02-28T03:45:26;0.79;64.88
77519;DHT22;66629;47.346;19.038;2023-02-28T03:48:24;0.76;64.38
77519;DHT22;66629;47.346;19.038;2023-02-28T03:50:54;0.78;64.35
77519;DHT22;66629;47.346;19.038;2023-02-28T03:55:53;0.68;64.52
77519;DHT22;66629;47.346;19.038;2023-02-28T04:01:30;0.71;64.70
77519;DHT22;66629;47.346;19.038;2023-02-28T04:03:56;0.74;64.65
77519;DHT22;66629;47.346;19.038;2023-02-28T04:06:23;0.79;64.54
77519;DHT22;66629;47.346;19.038;2023-02-28T04:08:49;0.74;64.61
77519;DHT22;66629;47.346;19.038;2023-02-28T04:11:24;0.72;64.58
77519;DHT22;66629;47.346;19.038;2023-02-28T04:13:51;0.79;64.71
77519;DHT22;66629;47.346;19.038;2023-02-28T04:16:16;0.78;64.48
77519;DHT22;66629;47.346;19.038;2023-02-28T04:18:42;0.84;64.83
77519;DHT22;66629;47.346;19.038;2023-02-28T04:21:11;0.82;64.84
77519;DHT22;66629;47.346;19.038;2023-02-28T04:23:37;0.84;64.68
77519;DHT22;66629;47.346;19.038;2023-02-28T04:26:03;0.71;65.09
77519;DHT22;66629;47.346;19.038;2023-02-28T04:28:29;0.75;65.27
77519;DHT22;66629;47.346;19.038;2023-02-28T04:30:59;0.79;65.15
77519;DHT22;66629;47.346;19.038;2023-02-28T04:33:25;0.75;65.81
77519;DHT22;66629;47.346;19.038;2023-02-28T04:36:07;0.69;65.95
77519;DHT22;66629;47.346;19.038;2023-02-28T04:38:37;0.68;66.01
77519;DHT22;66629;47.346;19.038;2023-02-28T04:41:04;0.68;66.08
77519;DHT22;66629;47.346;19.038;2023-02-28T04:43:29;0.65;66.32
77519;DHT22;66629;47.346;19.038;2023-02-28T04:45:57;0.67;66.33
77519;DHT22;66629;47.346;19.038;2023-02-28T04:48:27;0.74;66.50
77519;DHT22;66629;47.346;19.038;2023-02-28T04:50:53;0.75;66.25
77519;DHT22;66629;47.346;19.038;2023-02-28T04:53:19;0.76;66.11
77519;DHT22;66629;47.346;19.038;2023-02-28T04:55:44;0.67;65.46
77519;DHT22;66629;47.346;19.038;2023-02-28T04:58:11;0.69;65.65
77519;DHT22;66629;47.346;19.038;2023-02-28T05:00:36;0.72;65.57
77519;DHT22;66629;47.346;19.038;2023-02-28T05:03:02;0.74;65.80
77519;DHT22;66629;47.346;19.038;2023-02-28T05:05:27;0.78;66.20
77519;DHT22;66629;47.346;19.038;2023-02-28T05:07:53;0.89;65.14
77519;DHT22;66629;47.346;19.038;2023-02-28T05:10:21;0.95;64.29
77519;DHT22;66629;47.346;19.038;2023-02-28T05:12:47;0.89;64.12
77519;DHT22;66629;47.346;19.038;2023-02-28T05:15:14;0.91;63.98
77519;DHT22;66629;47.346;19.038;2023-02-28T05:17:40;0.91;63.79
77519;DHT22;66629;47.346;19.038;2023-02-28T05:20:07;0.89;62.41
77519;DHT22;66629;47.346;19.038;2023-02-28T05:22:33;0.89;63.05
77519;DHT22;66629;47.346;19.038;2023-02-28T05:24:59;0.89;62.71
77519;DHT22;66629;47.346;19.038;2023-02-28T05:27:24;0.97;62.31
77519;DHT22;66629;47.346;19.038;2023-02-28T05:29:50;0.96;62.23
77519;DHT22;66629;47.346;19.038;2023-02-28T05:32:15;0.96;62.87
77519;DHT22;66629;47.346;19.038;2023-02-28T05:34:41;0.97;62.84
77519;DHT22;66629;47.346;19.038;2023-02-28T05:37:11;0.97;62.62
77519;DHT22;66629;47.346;19.038;2023-02-28T05:39:37;0.93;61.78
77519;DHT22;66629;47.346;19.038;2023-02-28T05:42:04;0.96;61.90
77519;DHT22;66629;47.346;19.038;2023-02-28T05:44:29;0.97;61.69
77519;DHT22;66629;47.346;19.038;2023-02-28T05:46:55;0.99;61.75
77519;DHT22;66629;47.346;19.038;2023-02-28T05:49:20;0.97;61.92
77519;DHT22;66629;47.346;19.038;2023-02-28T05:51:45;1.03;61.93
77519;DHT22;66629;47.346;19.038;2023-02-28T05:54:11;1.07;61.98
77519;DHT22;66629;47.346;19.038;2023-02-28T05:56:36;1.10;62.23
77519;DHT22;66629;47.346;19.038;2023-02-28T05:59:05;1.04;62.24
77519;DHT22;66629;47.346;19.038;2023-02-28T06:01:39;1.07;62.28
77519;DHT22;66629;47.346;19.038;2023-02-28T06:04:06;1.04;62.65
77519;DHT22;66629;47.346;19.038;2023-02-28T06:06:31;1.10;62.52
77519;DHT22;66629;47.346;19.038;2023-02-28T06:08:59;1.15;62.80
77519;DHT22;66629;47.346;19.038;2023-02-28T06:11:26;1.20;62.56
77519;DHT22;66629;47.346;19.038;2023-02-28T06:13:58;1.26;62.24
77519;DHT22;66629;47.346;19.038;2023-02-28T06:16:25;1.31;62.40
77519;DHT22;66629;47.346;19.038;2023-02-28T06:18:51;1.30;61.45
77519;DHT22;66629;47.346;19.038;2023-02-28T06:21:18;1.30;62.07
77519;DHT22;66629;47.346;19.038;2023-02-28T06:23:43;1.38;61.91
77519;DHT22;66629;47.346;19.038;2023-02-28T06:26:09;1.41;61.82
77519;DHT22;66629;47.346;19.038;2023-02-28T06:28:35;1.48;61.67
77519;DHT22;66629;47.346;19.038;2023-02-28T06:31:07;1.52;61.03
77519;DHT22;66629;47.346;19.038;2023-02-28T06:33:33;1.56;60.92
77519;DHT22;66629;47.346;19.038;2023-02-28T06:35:59;1.58;60.36
77519;DHT22;66629;47.346;19.038;2023-02-28T06:38:25;1.63;59.92
77519;DHT22;66629;47.346;19.038;2023-02-28T06:40:57;1.72;61.02
77519;DHT22;66629;47.346;19.038;2023-02-28T06:43:24;1.73;60.14
77519;DHT22;66629;47.346;19.038;2023-02-28T06:45:50;1.85;60.35
77519;DHT22;66629;47.346;19.038;2023-02-28T06:48:19;1.80;58.70
77519;DHT22;66629;47.346;19.038;2023-02-28T06:50:44;1.83;59.31
77519;DHT22;66629;47.346;19.038;2023-02-28T06:53:09;1.96;60.32
77519;DHT22;66629;47.346;19.038;2023-02-28T06:55:37;1.92;58.96
77519;DHT22;66629;47.346;19.038;2023-02-28T06:58:03;2.07;59.32
77519;DHT22;66629;47.346;19.038;2023-02-28T07:00:28;2.13;57.57
77519;DHT22;66629;47.346;19.038;2023-02-28T07:02:54;2.27;57.08
77519;DHT22;66629;47.346;19.038;2023-02-28T07:05:20;2.31;56.93
77519;DHT22;66629;47.346;19.038;2023-02-28T07:07:45;2.36;57.11
77519;DHT22;66629;47.346;19.038;2023-02-28T07:10:12;2.25;55.65
77519;DHT22;66629;47.346;19.038;2023-02-28T07:12:39;2.29;56.21
77519;DHT22;66629;47.346;19.038;2023-02-28T07:15:05;2.31;56.26
77519;DHT22;66629;47.346;19.038;2023-02-28T07:17:31;2.41;55.83
77519;DHT22;66629;47.346;19.038;2023-02-28T07:19:57;2.52;56.70
77519;DHT22;66629;47.346;19.038;2023-02-28T07:22:22;2.59;56.32
77519;DHT22;66629;47.346;19.038;2023-02-28T07:24:47;2.42;55.50
77519;DHT22;66629;47.346;19.038;2023-02-28T07:27:13;2.57;56.48
77519;DHT22;66629;47.346;19.038;2023-02-28T07:29:49;2.62;55.73
77519;DHT22;66629;47.346;19.038;2023-02-28T07:32:14;2.64;55.29
77519;DHT22;66629;47.346;19.038;2023-02-28T07:34:40;2.59;54.40
77519;DHT22;66629;47.346;19.038;2023-02-28T07:37:05;2.66;54.96
77519;DHT22;66629;47.346;19.038;2023-02-28T07:39:30;2.79;54.79
77519;DHT22;66629;47.346;19.038;2023-02-28T07:41:56;2.79;54.93
77519;DHT22;66629;47.346;19.038;2023-02-28T07:44:21;2.79;54.07
77519;DHT22;66629;47.346;19.038;2023-02-28T07:46:47;3.03;54.43
77519;DHT22;66629;47.346;19.038;2023-02-28T07:49:12;2.98;53.59
77519;DHT22;66629;47.346;19.038;2023-02-28T07:51:38;3.01;53.60
77519;DHT22;66629;47.346;19.038;2023-02-28T07:54:03;3.23;52.57
77519;DHT22;66629;47.346;19.038;2023-02-28T07:56:29;3.28;53.18
77519;DHT22;66629;47.346;19.038;2023-02-28T07:58:54;3.30;52.72
77519;DHT22;66629;47.346;19.038;2023-02-28T08:01:20;3.18;52.59
77519;DHT22;66629;47.346;19.038;2023-02-28T08:03:45;3.33;52.58
77519;DHT22;66629;47.346;19.038;2023-02-28T08:06:20;3.22;52.72
77519;DHT22;66629;47.346;19.038;2023-02-28T08:08:46;3.28;52.52
77519;DHT22;66629;47.346;19.038;2023-02-28T08:11:11;3.15;52.87
77519;DHT22;66629;47.346;19.038;2023-02-28T08:13:37;3.56;52.78
77519;DHT22;66629;47.346;19.038;2023-02-28T08:16:02;3.40;51.11
77519;DHT22;66629;47.346;19.038;2023-02-28T08:18:28;3.36;51.84
77519;DHT22;66629;47.346;19.038;2023-02-28T08:20:53;3.50;51.88
77519;DHT22;66629;47.346;19.038;2023-02-28T08:23:19;3.71;50.89
77519;DHT22;66629;47.346;19.038;2023-02-28T08:25:44;3.74;51.50
77519;DHT22;66629;47.346;19.038;2023-02-28T08:28:10;3.84;51.28
77519;DHT22;66629;47.346;19.038;2023-02-28T08:30:35;3.64;51.24
77519;DHT22;66629;47.346;19.038;2023-02-28T08:33:00;3.57;51.95
77519;DHT22;66629;47.346;19.038;2023-02-28T08:35:27;3.70;51.42
77519;DHT22;66629;47.346;19.038;2023-02-28T08:37:52;3.36;51.22
77519;DHT22;66629;47.346;19.038;2023-02-28T08:40:17;3.81;51.48
77519;DHT22;66629;47.346;19.038;2023-02-28T08:42:44;4.01;51.39
77519;DHT22;66629;47.346;19.038;2023-02-28T08:45:11;4.09;51.19
77519;DHT22;66629;47.346;19.038;2023-02-28T08:47:36;4.22;51.19
77519;DHT22;66629;47.346;19.038;2023-02-28T08:50:03;4.30;50.10
77519;DHT22;66629;47.346;19.038;2023-02-28T08:52:29;4.33;49.80
77519;DHT22;66629;47.346;19.038;2023-02-28T08:54:54;4.33;50.30
77519;DHT22;66629;47.346;19.038;2023-02-28T08:57:19;4.26;50.77
77519;DHT22;66629;47.346;19.038;2023-02-28T08:59:45;4.50;50.00
77519;DHT22;66629;47.346;19.038;2023-02-28T09:02:14;4.02;50.19
77519;DHT22;66629;47.346;19.038;2023-02-28T09:04:40;4.28;50.36
77519;DHT22;66629;47.346;19.038;2023-02-28T09:07:05;4.40;49.21
77519;DHT22;66629;47.346;19.038;2023-02-28T09:09:31;4.22;50.20
77519;DHT22;66629;47.346;19.038;2023-02-28T09:11:57;4.07;50.84
77519;DHT22;66629;47.346;19.038;2023-02-28T09:14:22;3.98;51.23
77519;DHT22;66629;47.346;19.038;2023-02-28T09:16:48;4.33;50.65
77519;DHT22;66629;47.346;19.038;2023-02-28T09:19:14;4.60;50.42
77519;DHT22;66629;47.346;19.038;2023-02-28T09:21:39;4.93;50.05
77519;DHT22;66629;47.346;19.038;2023-02-28T09:24:05;5.00;49.33
77519;DHT22;66629;47.346;19.038;2023-02-28T09:26:31;4.86;49.71
77519;DHT22;66629;47.346;19.038;2023-02-28T09:28:56;5.23;50.76
77519;DHT22;66629;47.346;19.038;2023-02-28T09:31:25;5.42;50.00
77519;DHT22;66629;47.346;19.038;2023-02-28T09:33:53;5.52;49.30
77519;DHT22;66629;47.346;19.038;2023-02-28T09:36:20;5.33;49.08
77519;DHT22;66629;47.346;19.038;2023-02-28T09:38:46;5.31;48.98
77519;DHT22;66629;47.346;19.038;2023-02-28T09:41:35;5.34;49.15
77519;DHT22;66629;47.346;19.038;2023-02-28T09:44:04;4.96;49.94
77519;DHT22;66629;47.346;19.038;2023-02-28T09:46:35;5.49;49.34
77519;DHT22;66629;47.346;19.038;2023-02-28T09:49:07;5.37;49.03
77519;DHT22;66629;47.346;19.038;2023-02-28T09:54:20;5.56;49.49
77519;DHT22;66629;47.346;19.038;2023-02-28T09:56:53;5.86;48.78
77519;DHT22;66629;47.346;19.038;2023-02-28T09:59:46;5.83;48.33
77519;DHT22;66629;47.346;19.038;2023-02-28T10:05:04;5.47;50.15
77519;DHT22;66629;47.346;19.038;2023-02-28T10:10:27;5.76;49.86
77519;DHT22;66629;47.346;19.038;2023-02-28T10:12:55;5.85;49.00
77519;DHT22;66629;47.346;19.038;2023-02-28T10:15:24;5.63;49.05
77519;DHT22;66629;47.346;19.038;2023-02-28T10:17:54;5.97;48.00
77519;DHT22;66629;47.346;19.038;2023-02-28T10:20:23;5.96;48.78
77519;DHT22;66629;47.346;19.038;2023-02-28T10:23:05;6.29;49.48
77519;DHT22;66629;47.346;19.038;2023-02-28T10:25:36;6.25;48.22
77519;DHT22;66629;47.346;19.038;2023-02-28T10:28:11;5.65;49.26
77519;DHT22;66629;47.346;19.038;2023-02-28T10:30:44;5.41;50.40
77519;DHT22;66629;47.346;19.038;2023-02-28T10:35:48;5.54;49.37
77519;DHT22;66629;47.346;19.038;2023-02-28T10:38:31;5.77;49.51
77519;DHT22;66629;47.346;19.038;2023-02-28T10:41:30;5.83;49.77
77519;DHT22;66629;47.346;19.038;2023-02-28T10:44:14;5.66;49.72
77519;DHT22;66629;47.346;19.038;2023-02-28T10:46:41;5.69;49.99
77519;DHT22;66629;47.346;19.038;2023-02-28T10:49:14;5.72;49.89
77519;DHT22;66629;47.346;19.038;2023-02-28T10:51:41;5.76;49.80
77519;DHT22;66629;47.346;19.038;2023-02-28T10:54:16;5.93;49.93
77519;DHT22;66629;47.346;19.038;2023-02-28T10:56:42;6.10;49.47
77519;DHT22;66629;47.346;19.038;2023-02-28T11:01:41;6.16;48.68
77519;DHT22;66629;47.346;19.038;2023-02-28T11:07:05;6.04;49.49
77519;DHT22;66629;47.346;19.038;2023-02-28T11:09:37;6.14;49.18
77519;DHT22;66629;47.346;19.038;2023-02-28T11:12:07;6.36;48.74
77519;DHT22;66629;47.346;19.038;2023-02-28T11:14:47;6.16;48.93
77519;DHT22;66629;47.346;19.038;2023-02-28T11:17:25;6.18;49.92
77519;DHT22;66629;47.346;19.038;2023-02-28T11:19:53;6.45;49.25
77519;DHT22;66629;47.346;19.038;2023-02-28T11:22:24;6.65;48.19
77519;DHT22;66629;47.346;19.038;2023-02-28T11:24:52;6.76;48.57
77519;DHT22;66629;47.346;19.038;2023-02-28T11:29:57;7.28;47.45
77519;DHT22;66629;47.346;19.038;2023-02-28T11:32:24;7.42;47.59
77519;DHT22;66629;47.346;19.038;2023-02-28T11:35:04;7.50;47.38
77519;DHT22;66629;47.346;19.038;2023-02-28T11:37:39;7.35;47.25
77519;DHT22;66629;47.346;19.038;2023-02-28T11:43:27;7.12;47.51
77519;DHT22;66629;47.346;19.038;2023-02-28T11:46:04;6.80;48.15
77519;DHT22;66629;47.346;19.038;2023-02-28T11:48:53;6.88;49.27
77519;DHT22;66629;47.346;19.038;2023-02-28T11:51:28;7.35;48.10
77519;DHT22;66629;47.346;19.038;2023-02-28T11:56:41;7.66;47.45
77519;DHT22;66629;47.346;19.038;2023-02-28T12:05:24;7.35;49.10
77519;DHT22;66629;47.346;19.038;2023-02-28T12:19:23;7.30;49.78
77519;DHT22;66629;47.346;19.038;2023-02-28T12:27:13;7.00;50.41
77519;DHT22;66629;47.346;19.038;2023-02-28T12:32:21;7.04;51.14
77519;DHT22;66629;47.346;19.038;2023-02-28T12:34:56;7.14;49.78
77519;DHT22;66629;47.346;19.038;2023-02-28T12:40:11;7.30;50.11
77519;DHT22;66629;47.346;19.038;2023-02-28T12:42:43;6.91;50.17
77519;DHT22;66629;47.346;19.038;2023-02-28T12:48:14;6.73;50.56
77519;DHT22;66629;47.346;19.038;2023-02-28T12:50:40;6.67;50.82
77519;DHT22;66629;47.346;19.038;2023-02-28T12:53:11;6.93;50.86
77519;DHT22;66629;47.346;19.038;2023-02-28T12:58:39;7.12;50.10
77519;DHT22;66629;47.346;19.038;2023-02-28T13:06:45;6.97;51.00
77519;DHT22;66629;47.346;19.038;2023-02-28T13:09:18;6.87;51.07
77519;DHT22;66629;47.346;19.038;2023-02-28T13:11:49;6.75;51.34
77519;DHT22;66629;47.346;19.038;2023-02-28T13:17:09;6.94;51.57
77519;DHT22;66629;47.346;19.038;2023-02-28T13:20:04;6.91;51.51
77519;DHT22;66629;47.346;19.038;2023-02-28T13:27:54;6.73;51.22
77519;DHT22;66629;47.346;19.038;2023-02-28T13:33:31;6.84;51.08
77519;DHT22;66629;47.346;19.038;2023-02-28T13:38:46;6.69;51.95
77519;DHT22;66629;47.346;19.038;2023-02-28T13:52:14;7.11;51.40
77519;DHT22;66629;47.346;19.038;2023-02-28T14:00:28;7.22;50.73
77519;DHT22;66629;47.346;19.038;2023-02-28T14:05:41;7.05;50.86
77519;DHT22;66629;47.346;19.038;2023-02-28T14:08:18;7.08;50.85
77519;DHT22;66629;47.346;19.038;2023-02-28T14:10:51;7.23;51.21
77519;DHT22;66629;47.346;19.038;2023-02-28T14:16:03;6.86;51.90
77519;DHT22;66629;47.346;19.038;2023-02-28T14:18:37;6.95;51.28
77519;DHT22;66629;47.346;19.038;2023-02-28T14:21:24;6.80;52.64
77519;DHT22;66629;47.346;19.038;2023-02-28T14:34:50;6.45;53.84
77519;DHT22;66629;47.346;19.038;2023-02-28T14:37:27;6.29;54.77
77519;DHT22;66629;47.346;19.038;2023-02-28T14:39:53;6.24;55.01
77519;DHT22;66629;47.346;19.038;2023-02-28T14:42:35;6.21;55.24
77519;DHT22;66629;47.346;19.038;2023-02-28T14:45:03;6.27;55.41
77519;DHT22;66629;47.346;19.038;2023-02-28T14:47:33;6.32;55.40
77519;DHT22;66629;47.346;19.038;2023-02-28T14:50:01;6.25;55.54
77519;DHT22;66629;47.346;19.038;2023-02-28T14:52:30;6.27;55.43
77519;DHT22;66629;47.346;19.038;2023-02-28T14:55:00;6.10;55.54
77519;DHT22;66629;47.346;19.038;2023-02-28T14:57:32;5.97;56.17
77519;DHT22;66629;47.346;19.038;2023-02-28T15:00:02;5.94;55.94
77519;DHT22;66629;47.346;19.038;2023-02-28T15:02:31;5.92;56.05
77519;DHT22;66629;47.346;19.038;2023-02-28T15:05:47;5.97;56.44
77519;DHT22;66629;47.346;19.038;2023-02-28T15:07:47;6.00;56.20
77519;DHT22;66629;47.346;19.038;2023-02-28T15:12:39;5.83;56.34
77519;DHT22;66629;47.346;19.038;2023-02-28T15:15:06;5.80;56.62
77519;DHT22;66629;47.346;19.038;2023-02-28T15:17:39;5.82;56.83
77519;DHT22;66629;47.346;19.038;2023-02-28T15:20:05;5.72;56.66
77519;DHT22;66629;47.346;19.038;2023-02-28T15:22:35;5.59;56.82
77519;DHT22;66629;47.346;19.038;2023-02-28T15:25:03;5.56;57.14
77519;DHT22;66629;47.346;19.038;2023-02-28T15:27:32;5.66;57.47
77519;DHT22;66629;47.346;19.038;2023-02-28T15:30:00;5.65;57.08
77519;DHT22;66629;47.346;19.038;2023-02-28T15:34:57;5.58;57.25
77519;DHT22;66629;47.346;19.038;2023-02-28T15:37:45;5.60;57.50
77519;DHT22;66629;47.346;19.038;2023-02-28T15:40:31;5.48;57.61
77519;DHT22;66629;47.346;19.038;2023-02-28T15:42:59;5.41;57.72
77519;DHT22;66629;47.346;19.038;2023-02-28T15:45:33;5.52;57.97
77519;DHT22;66629;47.346;19.038;2023-02-28T15:48:02;5.41;58.02
77519;DHT22;66629;47.346;19.038;2023-02-28T15:50:28;5.41;58.21
77519;DHT22;66629;47.346;19.038;2023-02-28T15:52:54;5.45;58.27
77519;DHT22;66629;47.346;19.038;2023-02-28T15:55:27;5.45;57.93
77519;DHT22;66629;47.346;19.038;2023-02-28T15:57:59;5.41;58.07
77519;DHT22;66629;47.346;19.038;2023-02-28T16:00:27;5.42;58.06
77519;DHT22;66629;47.346;19.038;2023-02-28T16:02:53;5.40;58.25
77519;DHT22;66629;47.346;19.038;2023-02-28T16:05:22;5.45;58.46
77519;DHT22;66629;47.346;19.038;2023-02-28T16:07:54;5.40;58.73
77519;DHT22;66629;47.346;19.038;2023-02-28T16:10:21;5.37;58.86
77519;DHT22;66629;47.346;19.038;2023-02-28T16:12:50;5.34;59.23
77519;DHT22;66629;47.346;19.038;2023-02-28T16:15:26;5.33;59.36
77519;DHT22;66629;47.346;19.038;2023-02-28T16:17:54;5.34;59.46
77519;DHT22;66629;47.346;19.038;2023-02-28T16:20:23;5.19;59.53
77519;DHT22;66629;47.346;19.038;2023-02-28T16:22:49;5.22;59.57
77519;DHT22;66629;47.346;19.038;2023-02-28T16:25:19;5.19;59.74
77519;DHT22;66629;47.346;19.038;2023-02-28T16:27:49;5.20;59.84
77519;DHT22;66629;47.346;19.038;2023-02-28T16:30:21;5.24;59.75
77519;DHT22;66629;47.346;19.038;2023-02-28T16:32:48;5.24;59.94
77519;DHT22;66629;47.346;19.038;2023-02-28T16:35:14;5.15;60.29
77519;DHT22;66629;47.346;19.038;2023-02-28T16:37:40;5.17;60.72
77519;DHT22;66629;47.346;19.038;2023-02-28T16:40:09;5.10;60.84
77519;DHT22;66629;47.346;19.038;2023-02-28T16:42:38;5.19;60.87
77519;DHT22;66629;47.346;19.038;2023-02-28T16:45:04;5.16;61.05
77519;DHT22;66629;47.346;19.038;2023-02-28T16:47:30;5.27;60.72
77519;DHT22;66629;47.346;19.038;2023-02-28T16:49:56;5.19;60.86
77519;DHT22;66629;47.346;19.038;2023-02-28T16:52:22;5.24;61.08
77519;DHT22;66629;47.346;19.038;2023-02-28T16:54:47;5.19;61.16
77519;DHT22;66629;47.346;19.038;2023-02-28T16:57:22;5.23;61.32
77519;DHT22;66629;47.346;19.038;2023-02-28T16:59:49;5.13;61.44
77519;DHT22;66629;47.346;19.038;2023-02-28T17:02:19;5.15;61.56
77519;DHT22;66629;47.346;19.038;2023-02-28T17:04:45;5.17;61.36
77519;DHT22;66629;47.346;19.038;2023-02-28T17:07:12;5.10;61.53
77519;DHT22;66629;47.346;19.038;2023-02-28T17:09:38;5.06;61.90
77519;DHT22;66629;47.346;19.038;2023-02-28T17:12:04;5.15;61.84
77519;DHT22;66629;47.346;19.038;2023-02-28T17:14:29;5.12;62.05
77519;DHT22;66629;47.346;19.038;2023-02-28T17:16:56;5.12;62.22
77519;DHT22;66629;47.346;19.038;2023-02-28T17:19:21;5.17;62.08
77519;DHT22;66629;47.346;19.038;2023-02-28T17:21:47;5.13;62.38
77519;DHT22;66629;47.346;19.038;2023-02-28T17:24:12;5.07;62.82
77519;DHT22;66629;47.346;19.038;2023-02-28T17:26:40;5.00;62.89
77519;DHT22;66629;47.346;19.038;2023-02-28T17:29:13;5.09;62.82
77519;DHT22;66629;47.346;19.038;2023-02-28T17:31:39;5.03;62.94
77519;DHT22;66629;47.346;19.038;2023-02-28T17:34:05;4.99;63.00
77519;DHT22;66629;47.346;19.038;2023-02-28T17:36:31;5.01;62.77
77519;DHT22;66629;47.346;19.038;2023-02-28T17:38:59;4.92;62.97
77519;DHT22;66629;47.346;19.038;2023-02-28T17:41:24;4.93;63.11
77519;DHT22;66629;47.346;19.038;2023-02-28T17:43:51;4.92;63.11
77519;DHT22;66629;47.346;19.038;2023-02-28T17:46:20;4.93;63.09
77519;DHT22;66629;47.346;19.038;2023-02-28T17:48:50;4.89;63.55
77519;DHT22;66629;47.346;19.038;2023-02-28T17:51:18;4.88;63.06
77519;DHT22;66629;47.346;19.038;2023-02-28T17:53:44;4.82;63.55
77519;DHT22;66629;47.346;19.038;2023-02-28T17:56:23;4.85;63.62
77519;DHT22;66629;47.346;19.038;2023-02-28T17:58:51;4.88;63.73
77519;DHT22;66629;47.346;19.038;2023-02-28T18:01:16;4.88;63.50
77519;DHT22;66629;47.346;19.038;2023-02-28T18:03:44;4.85;63.68
77519;DHT22;66629;47.346;19.038;2023-02-28T18:06:24;4.82;63.54
77519;DHT22;66629;47.346;19.038;2023-02-28T18:08:51;4.85;63.76
77519;DHT22;66629;47.346;19.038;2023-02-28T18:11:17;4.82;63.96
77519;DHT22;66629;47.346;19.038;2023-02-28T18:13:45;4.83;64.14
77519;DHT22;66629;47.346;19.038;2023-02-28T18:16:11;4.79;64.10
77519;DHT22;66629;47.346;19.038;2023-02-28T18:18:37;4.79;64.19
77519;DHT22;66629;47.346;19.038;2023-02-28T18:21:06;4.79;64.14